createdAt,value
2018-07-17T00:02:01.118Z,99.90
2018-07-17T00:04:31.339Z,99.90
2018-07-17T00:07:01.807Z,99.90
2018-07-17T00:09:32.088Z,99.90
2018-07-17T00:12:02.631Z,99.90
2018-07-17T00:14:33.122Z,99.90
2018-07-17T00:17:03.608Z,99.90
2018-07-17T00:19:33.973Z,99.90
2018-07-17T00:22:04.631Z,99.90
2018-07-17T00:24:35.026Z,99.90
2018-07-17T00:27:07.540Z,99.90
2018-07-17T00:29:38.055Z,99.90
2018-07-17T00:32:08.458Z,99.90
2018-07-17T00:34:38.797Z,99.90
2018-07-17T00:37:09.232Z,99.90
2018-07-17T00:39:39.759Z,99.90
2018-07-17T00:42:10.187Z,99.90
2018-07-17T00:44:40.467Z,99.90
2018-07-17T00:47:10.976Z,99.90
2018-07-17T00:49:41.548Z,99.90
2018-07-17T00:52:13.573Z,99.90
2018-07-17T00:54:44.035Z,99.90
2018-07-17T00:57:14.256Z,99.90
2018-07-17T00:59:44.503Z,99.90
2018-07-17T01:02:19.770Z,99.90
2018-07-17T01:04:55.257Z,99.90
2018-07-17T01:10:05.862Z,99.90
2018-07-17T01:12:35.213Z,99.90
2018-07-17T01:15:10.724Z,99.90
2018-07-17T01:17:41.239Z,99.90
2018-07-17T01:20:11.536Z,99.90
2018-07-17T01:22:41.760Z,99.90
2018-07-17T01:27:42.403Z,99.90
2018-07-17T01:30:12.872Z,99.90
2018-07-17T01:32:43.182Z,99.90
2018-07-17T01:35:13.550Z,99.90
2018-07-17T01:37:43.757Z,99.90
2018-07-17T01:40:14.389Z,99.90
2018-07-17T01:42:44.863Z,99.90
2018-07-17T01:45:15.229Z,99.90
2018-07-17T01:47:45.840Z,99.90
2018-07-17T01:52:46.236Z,99.90
2018-07-17T01:55:16.563Z,99.90
2018-07-17T01:57:46.679Z,99.90
2018-07-17T02:00:17.175Z,99.90
2018-07-17T02:02:47.481Z,99.90
2018-07-17T02:05:18.070Z,99.90
2018-07-17T02:07:48.588Z,99.90
2018-07-17T02:10:18.990Z,99.90
2018-07-17T02:12:49.195Z,99.90
2018-07-17T02:15:19.624Z,99.90
2018-07-17T02:20:19.847Z,99.90
2018-07-17T02:22:50.309Z,99.90
2018-07-17T02:25:20.771Z,99.90
2018-07-17T02:27:51.098Z,99.90
2018-07-17T02:32:51.547Z,99.90
2018-07-17T02:35:21.653Z,99.90
2018-07-17T02:37:52.078Z,99.90
2018-07-17T02:40:22.337Z,99.90
2018-07-17T02:42:52.854Z,99.90
2018-07-17T02:45:23.364Z,99.90
2018-07-17T02:50:23.739Z,99.90
2018-07-17T02:55:24.173Z,99.90
2018-07-17T02:57:54.745Z,99.90
2018-07-17T03:02:55.108Z,99.90
2018-07-17T03:07:55.636Z,99.90
2018-07-17T03:10:26.495Z,99.90
2018-07-17T03:12:56.796Z,99.90
2018-07-17T03:15:27.264Z,99.90
2018-07-17T03:17:57.723Z,99.90
2018-07-17T03:20:28.200Z,99.90
2018-07-17T03:22:58.621Z,99.90
2018-07-17T03:27:59.138Z,99.90
2018-07-17T03:30:29.566Z,99.90
2018-07-17T03:32:59.866Z,99.90
2018-07-17T03:35:30.244Z,99.90
2018-07-17T03:38:00.511Z,99.90
2018-07-17T03:40:30.763Z,99.90
2018-07-17T03:43:01.177Z,99.90
2018-07-17T03:45:31.676Z,99.90
2018-07-17T03:48:01.971Z,99.90
2018-07-17T03:50:32.386Z,99.90
2018-07-17T03:53:02.653Z,99.90
2018-07-17T03:55:32.682Z,99.90
2018-07-17T03:58:03.108Z,99.90
2018-07-17T04:00:33.585Z,99.90
2018-07-17T04:05:33.547Z,99.90
2018-07-17T04:08:03.891Z,99.90
2018-07-17T04:10:34.300Z,99.90
2018-07-17T04:13:04.674Z,99.90
2018-07-17T04:15:35.054Z,99.90
2018-07-17T04:18:05.486Z,99.90
2018-07-17T04:20:35.881Z,99.90
2018-07-17T04:23:06.669Z,99.90
2018-07-17T04:25:37.316Z,99.90
2018-07-17T04:28:07.793Z,99.90
2018-07-17T04:30:38.369Z,99.90
2018-07-17T04:33:08.613Z,99.90
2018-07-17T04:35:39.012Z,99.90
2018-07-17T04:38:09.300Z,99.90
2018-07-17T04:40:39.927Z,99.90
2018-07-17T04:43:10.590Z,99.90
2018-07-17T04:45:40.847Z,99.90
2018-07-17T04:48:11.271Z,99.90
2018-07-17T04:50:42.036Z,99.90
2018-07-17T04:53:12.483Z,99.90
2018-07-17T04:55:42.945Z,99.90
2018-07-17T05:00:43.453Z,99.90
2018-07-17T05:03:13.848Z,99.90
2018-07-17T05:08:14.224Z,99.90
2018-07-17T05:10:44.735Z,99.90
2018-07-17T05:13:15.176Z,99.90
2018-07-17T05:18:23.231Z,99.90
2018-07-17T05:20:54.099Z,99.90
2018-07-17T05:28:24.666Z,99.90
2018-07-17T05:30:55.502Z,99.90
2018-07-17T05:33:26.165Z,99.90
2018-07-17T05:35:56.658Z,99.90
2018-07-17T05:38:26.931Z,99.90
2018-07-17T05:40:57.347Z,99.90
2018-07-17T05:43:27.863Z,99.90
2018-07-17T05:45:58.433Z,98.50
2018-07-17T05:48:28.760Z,95.30
2018-07-17T05:50:59.063Z,92.50
2018-07-17T05:53:29.376Z,90.70
2018-07-17T05:55:59.767Z,85.40
2018-07-17T05:58:30.096Z,79.50
2018-07-17T06:01:00.379Z,73.80
2018-07-17T06:03:30.410Z,68.00
2018-07-17T06:06:00.609Z,68.50
2018-07-17T06:08:30.945Z,67.50
2018-07-17T06:11:01.002Z,64.20
2018-07-17T06:13:31.247Z,69.20
2018-07-17T06:16:01.230Z,71.30
2018-07-17T06:18:31.306Z,68.30
2018-07-17T06:21:01.331Z,64.70
2018-07-17T06:23:31.299Z,60.80
2018-07-17T06:26:01.307Z,60.00
2018-07-17T06:28:31.442Z,58.30
2018-07-17T06:31:01.517Z,62.20
2018-07-17T06:33:31.691Z,68.20
2018-07-17T06:36:01.836Z,66.00
2018-07-17T06:38:31.774Z,65.70
2018-07-17T06:41:01.876Z,63.50
2018-07-17T06:43:31.978Z,60.90
2018-07-17T06:46:05.720Z,58.50
2018-07-17T06:48:35.990Z,56.60
2018-07-17T06:51:06.081Z,55.10
2018-07-17T06:53:36.011Z,53.40
2018-07-17T06:56:06.274Z,54.70
2018-07-17T06:58:36.280Z,56.30
2018-07-17T07:01:06.262Z,57.60
2018-07-17T07:03:36.677Z,59.20
2018-07-17T07:06:06.607Z,57.70
2018-07-17T07:08:36.810Z,57.00
2018-07-17T07:11:07.523Z,55.00
2018-07-17T07:13:38.183Z,56.30
2018-07-17T07:16:08.143Z,58.70
2018-07-17T07:18:38.273Z,60.00
2018-07-17T07:21:08.503Z,59.80
2018-07-17T07:23:38.593Z,59.50
2018-07-17T07:26:08.787Z,56.90
2018-07-17T07:28:39.750Z,57.30
2018-07-17T07:31:09.834Z,57.00
2018-07-17T07:33:39.978Z,53.60
2018-07-17T07:36:10.122Z,51.40
2018-07-17T07:38:40.214Z,50.70
2018-07-17T07:41:10.253Z,50.20
2018-07-17T07:43:40.351Z,51.60
2018-07-17T07:46:13.393Z,51.80
2018-07-17T07:48:43.654Z,50.20
2018-07-17T07:51:13.707Z,51.20
2018-07-17T07:53:43.794Z,52.20
2018-07-17T07:56:13.731Z,52.80
2018-07-17T07:58:43.832Z,54.50
2018-07-17T08:01:13.979Z,55.80
2018-07-17T08:03:44.281Z,54.20
2018-07-17T08:06:14.055Z,54.30
2018-07-17T08:08:44.300Z,55.50
2018-07-17T08:11:14.457Z,57.30
2018-07-17T08:13:44.634Z,59.30
2018-07-17T08:16:14.793Z,59.40
2018-07-17T08:18:44.598Z,60.70
2018-07-17T08:21:14.778Z,60.90
2018-07-17T08:23:45.094Z,58.30
2018-07-17T08:26:15.389Z,57.70
2018-07-17T08:28:45.812Z,56.30
2018-07-17T08:31:15.797Z,54.10
2018-07-17T08:33:45.753Z,52.60
2018-07-17T08:36:15.862Z,55.70
2018-07-17T08:38:46.115Z,52.70
2018-07-17T08:43:46.073Z,55.20
2018-07-17T08:46:15.878Z,52.90
2018-07-17T08:48:45.994Z,53.60
2018-07-17T08:51:16.061Z,55.60
2018-07-17T08:53:46.130Z,56.70
2018-07-17T08:56:15.998Z,55.70
2018-07-17T09:01:16.129Z,53.20
2018-07-17T09:03:46.154Z,51.70
2018-07-17T09:06:16.345Z,52.30
2018-07-17T09:08:46.325Z,49.60
2018-07-17T09:11:16.423Z,50.50
2018-07-17T09:13:46.458Z,51.00
2018-07-17T09:16:16.714Z,52.50
2018-07-17T09:18:46.578Z,56.30
2018-07-17T09:21:16.705Z,56.90
2018-07-17T09:23:47.058Z,58.60
2018-07-17T09:26:17.275Z,58.70
2018-07-17T09:28:47.677Z,59.20
2018-07-17T09:31:17.770Z,58.90
2018-07-17T09:33:47.891Z,59.70
2018-07-17T09:36:18.156Z,57.90
2018-07-17T09:38:48.264Z,56.50
2018-07-17T09:41:18.355Z,54.90
2018-07-17T09:43:48.481Z,53.70
2018-07-17T09:46:18.354Z,53.10
2018-07-17T09:48:48.537Z,52.60
2018-07-17T09:51:18.773Z,51.60
2018-07-17T09:53:48.922Z,50.40
2018-07-17T09:56:18.826Z,48.30
2018-07-17T09:58:48.630Z,50.50
2018-07-17T10:01:23.999Z,52.60
2018-07-17T10:03:54.101Z,51.40
2018-07-17T10:06:24.489Z,49.10
2018-07-17T10:08:54.514Z,48.10
2018-07-17T10:11:24.566Z,48.50
2018-07-17T10:16:24.198Z,43.60
2018-07-17T10:18:54.570Z,43.90
2018-07-17T10:23:54.095Z,43.60
2018-07-17T10:26:24.869Z,43.00
2018-07-17T10:28:54.995Z,42.90
2018-07-17T10:31:25.128Z,43.10
2018-07-17T10:36:24.793Z,46.50
2018-07-17T10:38:54.851Z,48.20
2018-07-17T10:41:25.146Z,44.40
2018-07-17T10:44:01.377Z,43.70
2018-07-17T10:46:31.177Z,41.50
2018-07-17T10:49:01.066Z,40.10
2018-07-17T10:51:31.243Z,37.80
2018-07-17T10:54:01.830Z,35.70
2018-07-17T10:56:32.061Z,35.70
2018-07-17T10:59:02.072Z,34.30
2018-07-17T11:01:32.262Z,33.50
2018-07-17T11:04:02.355Z,33.60
2018-07-17T11:06:32.267Z,34.50
2018-07-17T11:09:02.314Z,35.00
2018-07-17T11:11:32.199Z,36.80
2018-07-17T11:14:02.259Z,34.40
2018-07-17T11:16:32.667Z,34.20
2018-07-17T11:19:02.687Z,36.00
2018-07-17T11:21:32.910Z,36.60
2018-07-17T11:24:02.729Z,35.60
2018-07-17T11:26:33.015Z,36.70
2018-07-17T11:29:07.713Z,36.80
2018-07-17T11:31:39.834Z,35.10
2018-07-17T11:34:20.943Z,32.20
2018-07-17T11:36:51.740Z,31.00
2018-07-17T11:39:23.066Z,31.00
2018-07-17T11:41:53.410Z,28.30
2018-07-17T11:44:24.125Z,29.10
2018-07-17T11:46:54.607Z,30.40
2018-07-17T11:49:29.854Z,29.90
2018-07-17T11:52:04.178Z,38.70
2018-07-17T11:54:34.783Z,49.50
2018-07-17T11:57:16.383Z,49.30
2018-07-17T11:59:46.922Z,51.70
2018-07-17T12:02:17.652Z,55.30
2018-07-17T12:04:48.204Z,57.50
2018-07-17T12:07:18.602Z,60.50
2018-07-17T12:09:48.904Z,59.00
2018-07-17T12:12:21.480Z,59.30
2018-07-17T12:14:52.240Z,54.60
2018-07-17T12:19:55.839Z,63.20
2018-07-17T12:22:26.137Z,58.40
2018-07-17T12:24:57.810Z,56.90
2018-07-17T12:27:28.127Z,55.20
2018-07-17T12:29:58.586Z,55.30
2018-07-17T12:32:29.214Z,52.40
2018-07-17T12:34:59.370Z,52.20
2018-07-17T12:37:36.569Z,52.40
2018-07-17T12:40:07.100Z,51.60
2018-07-17T12:45:07.360Z,50.20
2018-07-17T12:47:37.687Z,48.50
2018-07-17T12:50:08.137Z,48.60
2018-07-17T12:55:08.366Z,47.50
2018-07-17T12:57:38.434Z,44.20
2018-07-17T13:00:08.572Z,40.40
2018-07-17T13:05:08.422Z,36.40
2018-07-17T13:07:39.228Z,33.80
2018-07-17T13:10:09.365Z,31.50
2018-07-17T13:12:39.672Z,31.30
2018-07-17T13:15:09.946Z,31.30
2018-07-17T13:17:40.379Z,30.40
2018-07-17T13:20:10.767Z,30.30
2018-07-17T13:22:40.879Z,29.40
2018-07-17T13:30:10.400Z,31.00
2018-07-17T13:32:40.594Z,31.80
2018-07-17T13:37:41.002Z,30.90
2018-07-17T13:40:11.154Z,30.00
2018-07-17T13:42:41.420Z,31.10
2018-07-17T13:45:12.443Z,32.20
2018-07-17T13:47:43.410Z,33.80
2018-07-17T13:50:13.922Z,35.20
2018-07-17T13:52:44.436Z,35.80
2018-07-17T13:55:15.004Z,38.00
2018-07-17T13:57:45.443Z,38.80
2018-07-17T14:00:16.004Z,38.90
2018-07-17T14:02:46.075Z,40.60
2018-07-17T14:05:16.170Z,42.40
2018-07-17T14:07:46.222Z,42.80
2018-07-17T14:10:16.142Z,43.90
2018-07-17T14:15:15.939Z,45.10
2018-07-17T14:17:45.983Z,46.60
2018-07-17T14:20:16.273Z,47.40
2018-07-17T14:22:46.309Z,48.30
2018-07-17T14:25:16.564Z,49.10
2018-07-17T14:27:46.633Z,49.30
2018-07-17T14:30:16.822Z,50.10
2018-07-17T14:32:46.994Z,50.60
2018-07-17T14:35:17.151Z,51.40
2018-07-17T14:37:48.963Z,51.80
2018-07-17T14:40:19.448Z,52.50
2018-07-17T14:42:50.063Z,55.40
2018-07-17T14:45:21.262Z,59.20
2018-07-17T14:47:52.484Z,61.30
2018-07-17T14:50:24.516Z,62.60
2018-07-17T14:52:56.457Z,60.60
2018-07-17T14:55:27.215Z,62.60
2018-07-17T14:57:58.448Z,64.00
2018-07-17T15:00:29.566Z,67.10
2018-07-17T15:03:00.744Z,69.00
2018-07-17T15:05:43.334Z,70.20
2018-07-17T15:13:15.481Z,92.20
2018-07-17T15:15:45.888Z,98.40
2018-07-17T15:18:16.255Z,99.90
2018-07-17T15:20:54.032Z,99.90
2018-07-17T15:23:24.425Z,99.90
2018-07-17T15:25:54.987Z,99.90
2018-07-17T15:28:25.562Z,99.90
2018-07-17T15:30:55.975Z,99.90
2018-07-17T15:33:26.799Z,99.90
2018-07-17T15:35:58.780Z,99.90
2018-07-17T15:38:29.314Z,99.90
2018-07-17T15:40:59.899Z,99.90
2018-07-17T15:43:30.152Z,99.90
2018-07-17T15:48:30.496Z,99.90
2018-07-17T15:51:00.993Z,99.90
2018-07-17T15:53:31.344Z,99.90
2018-07-17T15:56:01.646Z,99.90
2018-07-17T15:58:31.762Z,99.90
2018-07-17T16:01:01.851Z,99.90
2018-07-17T16:03:31.870Z,99.90
2018-07-17T16:06:01.701Z,99.90
2018-07-17T16:08:31.931Z,99.90
2018-07-17T16:11:01.887Z,99.90
2018-07-17T16:13:32.069Z,99.90
2018-07-17T16:16:02.190Z,99.60
2018-07-17T16:18:32.490Z,97.10
2018-07-17T16:21:02.330Z,93.70
2018-07-17T16:23:32.571Z,85.70
2018-07-17T16:26:02.726Z,75.60
2018-07-17T16:28:32.876Z,64.30
2018-07-17T16:31:02.871Z,57.00
2018-07-17T16:33:32.728Z,48.10
2018-07-17T16:36:02.920Z,51.10
2018-07-17T16:38:33.050Z,52.20
2018-07-17T16:41:10.042Z,61.20
2018-07-17T16:43:40.110Z,76.20
2018-07-17T16:46:10.390Z,87.80
2018-07-17T16:48:40.401Z,95.40
2018-07-17T16:51:10.355Z,98.10
2018-07-17T16:53:40.289Z,94.80
2018-07-17T16:56:10.423Z,93.20
2018-07-17T16:58:40.347Z,88.90
2018-07-17T17:01:10.391Z,86.60
2018-07-17T17:06:10.203Z,78.80
2018-07-17T17:08:40.664Z,78.10
2018-07-17T17:11:11.116Z,78.30
2018-07-17T17:13:41.199Z,73.80
2018-07-17T17:16:11.579Z,77.70
2018-07-17T17:18:42.055Z,76.20
2018-07-17T17:21:12.545Z,78.20
2018-07-17T17:23:42.918Z,77.70
2018-07-17T17:26:13.037Z,74.60
2018-07-17T17:28:43.835Z,72.80
2018-07-17T17:31:13.803Z,72.70
2018-07-17T17:33:44.101Z,70.10
2018-07-17T17:36:14.199Z,69.50
2018-07-17T17:38:44.286Z,67.70
2018-07-17T17:41:14.342Z,72.10
2018-07-17T17:43:44.231Z,78.10
2018-07-17T17:46:14.259Z,81.50
2018-07-17T17:48:44.421Z,83.40
2018-07-17T17:51:33.543Z,85.20
2018-07-17T17:54:03.640Z,88.30
2018-07-17T17:59:03.581Z,90.20
2018-07-17T18:01:34.378Z,89.80
2018-07-17T18:04:04.862Z,90.70
2018-07-17T18:06:40.724Z,90.80
2018-07-17T18:09:11.142Z,90.80
2018-07-17T18:11:41.592Z,92.00
2018-07-17T18:14:11.699Z,92.60
2018-07-17T18:16:41.724Z,92.80
2018-07-17T18:19:12.069Z,92.20
2018-07-17T18:21:42.400Z,94.30
2018-07-17T18:24:12.924Z,97.30
2018-07-17T18:26:43.476Z,98.80
2018-07-17T18:29:13.809Z,99.90
2018-07-17T18:31:44.419Z,99.90
2018-07-17T18:34:14.821Z,99.90
2018-07-17T18:36:45.349Z,99.90
2018-07-17T18:39:15.835Z,99.90
2018-07-17T18:41:46.251Z,99.90
2018-07-17T18:44:16.432Z,99.90
2018-07-17T18:46:46.768Z,99.90
2018-07-17T18:49:17.219Z,99.90
2018-07-17T18:54:17.504Z,99.90
2018-07-17T18:56:47.645Z,99.90
2018-07-17T18:59:17.923Z,99.90
2018-07-17T19:01:48.355Z,99.90
2018-07-17T19:04:18.836Z,99.90
2018-07-17T19:06:49.111Z,99.90
2018-07-17T19:09:20.064Z,99.90
2018-07-17T19:11:51.764Z,99.90
2018-07-17T19:14:22.198Z,99.90
2018-07-17T19:16:52.876Z,99.90
2018-07-17T19:19:23.090Z,99.90
2018-07-17T19:21:55.229Z,99.90
2018-07-17T19:24:25.142Z,99.90
2018-07-17T19:26:55.062Z,99.90
2018-07-17T19:29:26.280Z,99.90
2018-07-17T19:31:59.863Z,99.90
2018-07-17T19:34:30.684Z,99.90
2018-07-17T19:37:00.763Z,99.90
2018-07-17T19:39:30.683Z,99.90
2018-07-17T19:42:00.665Z,99.90
2018-07-17T19:44:30.735Z,99.90
2018-07-17T19:47:07.003Z,99.90
2018-07-17T19:49:37.351Z,99.90
2018-07-17T19:52:12.327Z,99.90
2018-07-17T19:57:29.795Z,99.90
2018-07-17T20:02:44.735Z,99.90
2018-07-17T20:05:15.968Z,99.90
2018-07-17T20:07:46.289Z,99.90
2018-07-17T20:10:20.609Z,99.90
2018-07-17T20:12:50.871Z,99.90
2018-07-17T20:15:23.601Z,99.90
2018-07-17T20:17:55.611Z,99.90
2018-07-17T20:20:33.777Z,99.90
2018-07-17T20:23:04.007Z,99.90
2018-07-17T20:25:34.114Z,99.90
2018-07-17T20:28:04.210Z,99.90
2018-07-17T20:30:34.235Z,99.90
2018-07-17T20:33:04.762Z,99.90
2018-07-17T20:35:35.941Z,99.90
2018-07-17T20:38:06.216Z,99.90
2018-07-17T20:43:07.943Z,99.90
2018-07-17T20:45:38.891Z,99.90
2018-07-17T20:48:09.032Z,99.90
2018-07-17T20:50:39.182Z,99.90
2018-07-17T20:53:09.330Z,99.90
2018-07-17T20:55:39.753Z,99.90
2018-07-17T20:58:09.756Z,99.90
2018-07-17T21:03:09.666Z,99.90
2018-07-17T21:05:39.751Z,99.90
2018-07-17T21:08:09.618Z,99.90
2018-07-17T21:10:39.626Z,99.90
2018-07-17T21:13:10.508Z,99.90
2018-07-17T21:15:41.176Z,99.90
2018-07-17T21:18:11.834Z,99.90
2018-07-17T21:20:42.179Z,99.90
2018-07-17T21:25:45.105Z,99.90
2018-07-17T21:28:15.567Z,99.90
2018-07-17T21:30:46.044Z,99.90
2018-07-17T21:33:24.417Z,99.90
2018-07-17T21:35:55.264Z,99.90
2018-07-17T21:38:25.784Z,99.90
2018-07-17T21:40:56.230Z,99.90
2018-07-17T21:46:01.540Z,99.90
2018-07-17T21:48:32.084Z,99.90
2018-07-17T21:51:02.460Z,99.90
2018-07-17T21:53:32.967Z,99.90
2018-07-17T21:56:03.028Z,99.90
2018-07-17T21:58:33.475Z,99.90
2018-07-17T22:01:03.849Z,99.90
2018-07-17T22:03:34.325Z,99.90
2018-07-17T22:06:04.727Z,99.90
2018-07-17T22:13:35.111Z,99.90
2018-07-17T22:16:05.642Z,99.90
2018-07-17T22:18:36.142Z,99.90
2018-07-17T22:21:06.737Z,99.90
2018-07-17T22:26:07.358Z,99.90
2018-07-17T22:28:37.819Z,99.90
2018-07-17T22:31:08.345Z,99.90
2018-07-17T22:33:50.719Z,99.90
2018-07-17T22:36:25.634Z,99.90
2018-07-17T22:39:00.817Z,99.90
2018-07-17T22:41:36.821Z,99.90
2018-07-17T22:44:14.528Z,99.90
2018-07-17T22:46:53.197Z,99.90
2018-07-17T22:49:24.090Z,99.90
2018-07-17T22:51:55.746Z,99.90
2018-07-17T22:54:27.672Z,99.90
2018-07-17T22:57:01.791Z,99.90
2018-07-17T23:00:02.866Z,99.90
2018-07-17T23:02:33.335Z,99.90
2018-07-17T23:05:15.944Z,99.90
2018-07-17T23:07:46.408Z,99.90
2018-07-17T23:10:16.897Z,99.90
2018-07-17T23:12:47.531Z,99.90
2018-07-17T23:15:17.763Z,99.90
2018-07-17T23:17:47.976Z,99.90
2018-07-17T23:20:18.346Z,99.90
2018-07-17T23:22:54.993Z,99.90
2018-07-17T23:25:26.384Z,99.90
2018-07-17T23:27:57.414Z,99.90
2018-07-17T23:30:27.947Z,99.90
2018-07-17T23:32:58.807Z,99.90
2018-07-17T23:35:29.027Z,99.90
2018-07-17T23:37:59.313Z,99.90
2018-07-17T23:42:59.803Z,99.90
2018-07-17T23:45:30.587Z,99.90
2018-07-17T23:48:00.972Z,99.90
2018-07-17T23:50:31.169Z,99.90
2018-07-17T23:53:01.589Z,99.90
2018-07-17T23:55:31.967Z,99.90
2018-07-17T23:58:02.458Z,99.90
